createdAt,value
2018-08-10T00:02:13.859Z,58.78
2018-08-10T00:04:41.063Z,59.09
2018-08-10T00:07:08.292Z,60.01
2018-08-10T00:09:35.406Z,59.90
2018-08-10T00:12:02.659Z,59.64
2018-08-10T00:14:29.835Z,59.84
2018-08-10T00:16:57.091Z,59.37
2018-08-10T00:19:24.377Z,59.61
2018-08-10T00:21:51.497Z,59.15
2018-08-10T00:24:18.652Z,58.99
2018-08-10T00:26:45.805Z,59.32
2018-08-10T00:29:13.017Z,59.43
2018-08-10T00:31:40.169Z,59.07
2018-08-10T00:34:07.372Z,59.46
2018-08-10T00:36:34.480Z,59.00
2018-08-10T00:39:01.689Z,58.82
2018-08-10T00:41:28.886Z,59.02
2018-08-10T00:43:56.003Z,58.73
2018-08-10T00:46:23.181Z,58.92
2018-08-10T00:48:50.366Z,59.00
2018-08-10T00:51:17.512Z,59.35
2018-08-10T00:53:44.804Z,59.47
2018-08-10T00:56:11.885Z,59.20
2018-08-10T00:58:39.006Z,60.29
2018-08-10T01:01:06.165Z,60.04
2018-08-10T01:03:33.328Z,60.54
2018-08-10T01:06:00.477Z,60.61
2018-08-10T01:08:27.634Z,60.30
2018-08-10T01:10:54.740Z,59.49
2018-08-10T01:13:21.982Z,59.25
2018-08-10T01:15:49.038Z,58.54
2018-08-10T01:18:16.211Z,58.73
2018-08-10T01:20:43.365Z,58.52
2018-08-10T01:23:10.521Z,58.51
2018-08-10T01:25:37.660Z,59.53
2018-08-10T01:28:05.319Z,58.31
2018-08-10T01:30:33.619Z,58.32
2018-08-10T01:33:01.126Z,58.62
2018-08-10T01:35:28.712Z,59.04
2018-08-10T01:37:57.104Z,59.54
2018-08-10T01:40:24.250Z,58.76
2018-08-10T01:42:51.401Z,59.07
2018-08-10T01:45:18.541Z,59.59
2018-08-10T01:47:45.990Z,58.84
2018-08-10T01:50:13.152Z,58.36
2018-08-10T01:52:40.371Z,59.13
2018-08-10T01:55:08.067Z,59.52
2018-08-10T01:57:36.749Z,59.40
2018-08-10T02:00:05.289Z,58.76
2018-08-10T02:02:32.519Z,58.52
2018-08-10T02:04:59.640Z,58.88
2018-08-10T02:07:26.796Z,58.32
2018-08-10T02:09:53.944Z,59.53
2018-08-10T02:12:21.181Z,58.92
2018-08-10T02:14:48.339Z,59.39
2018-08-10T02:17:15.442Z,60.71
2018-08-10T02:19:42.680Z,61.64
2018-08-10T02:22:09.848Z,62.22
2018-08-10T02:24:36.953Z,62.91
2018-08-10T02:27:04.097Z,64.11
2018-08-10T02:29:31.265Z,64.31
2018-08-10T02:31:58.411Z,65.08
2018-08-10T02:34:25.724Z,66.04
2018-08-10T02:36:52.864Z,68.50
2018-08-10T02:39:20.049Z,66.99
2018-08-10T02:41:47.204Z,69.25
2018-08-10T02:44:14.377Z,69.82
2018-08-10T02:46:41.832Z,70.74
2018-08-10T02:49:08.993Z,69.91
2018-08-10T02:51:36.137Z,69.89
2018-08-10T02:54:03.451Z,72.23
2018-08-10T02:56:30.751Z,73.36
2018-08-10T02:58:57.928Z,72.94
2018-08-10T03:01:25.114Z,75.85
2018-08-10T03:03:52.499Z,74.12
2018-08-10T03:06:19.619Z,76.77
2018-08-10T03:08:46.788Z,77.52
2018-08-10T03:11:13.897Z,76.98
2018-08-10T03:13:41.016Z,78.01
2018-08-10T03:16:08.187Z,78.74
2018-08-10T03:18:35.416Z,78.46
2018-08-10T03:21:02.612Z,78.49
2018-08-10T03:23:29.815Z,76.48
2018-08-10T03:25:57.050Z,76.39
2018-08-10T03:28:24.333Z,76.47
2018-08-10T03:30:51.464Z,76.24
2018-08-10T03:33:18.620Z,76.22
2018-08-10T03:35:46.088Z,76.13
2018-08-10T03:38:13.264Z,75.85
2018-08-10T03:40:40.457Z,76.62
2018-08-10T03:45:34.221Z,78.96
2018-08-10T03:48:01.391Z,79.63
2018-08-10T03:50:28.536Z,81.09
2018-08-10T03:52:55.679Z,82.00
2018-08-10T03:55:22.788Z,81.02
2018-08-10T03:57:49.982Z,83.51
2018-08-10T04:00:17.108Z,83.35
2018-08-10T04:02:44.304Z,82.74
2018-08-10T04:05:12.089Z,84.08
2018-08-10T04:07:39.396Z,85.28
2018-08-10T04:10:07.194Z,86.40
2018-08-10T04:12:34.746Z,85.86
2018-08-10T04:15:01.916Z,85.45
2018-08-10T04:17:29.133Z,83.87
2018-08-10T04:19:56.272Z,81.90
2018-08-10T04:22:24.305Z,84.51
2018-08-10T04:24:51.460Z,83.94
2018-08-10T04:27:18.776Z,83.57
2018-08-10T04:29:46.172Z,82.39
2018-08-10T04:32:13.324Z,83.86
2018-08-10T04:34:40.405Z,83.51
2018-08-10T04:37:07.541Z,82.75
2018-08-10T04:39:34.668Z,82.58
2018-08-10T04:42:01.807Z,83.74
2018-08-10T04:44:28.963Z,84.07
2018-08-10T04:46:56.124Z,84.53
2018-08-10T04:49:23.281Z,84.88
2018-08-10T04:51:50.424Z,84.60
2018-08-10T04:54:17.588Z,84.23
2018-08-10T04:56:44.803Z,82.19
2018-08-10T04:59:11.944Z,82.34
2018-08-10T05:01:39.233Z,81.83
2018-08-10T05:04:06.457Z,81.29
2018-08-10T05:06:33.593Z,79.40
2018-08-10T05:09:00.760Z,78.74
2018-08-10T05:11:27.892Z,81.96
2018-08-10T05:13:55.035Z,82.02
2018-08-10T05:16:22.227Z,82.58
2018-08-10T05:18:49.417Z,79.71
2018-08-10T05:21:16.561Z,81.52
2018-08-10T05:23:43.743Z,80.35
2018-08-10T05:26:10.900Z,81.28
2018-08-10T05:28:38.089Z,81.53
2018-08-10T05:31:05.237Z,81.45
2018-08-10T05:33:32.389Z,81.57
2018-08-10T05:35:59.863Z,82.67
2018-08-10T05:38:27.003Z,80.79
2018-08-10T05:40:54.147Z,80.12
2018-08-10T05:43:21.276Z,79.80
2018-08-10T05:45:48.552Z,80.72
2018-08-10T05:48:15.668Z,80.51
2018-08-10T05:50:42.912Z,78.43
2018-08-10T05:53:10.073Z,76.09
2018-08-10T05:55:37.260Z,73.21
2018-08-10T05:58:04.777Z,73.46
2018-08-10T06:00:31.961Z,71.79
2018-08-10T06:02:59.153Z,69.54
2018-08-10T06:05:26.268Z,69.25
2018-08-10T06:07:53.435Z,69.47
2018-08-10T06:10:20.580Z,70.50
2018-08-10T06:12:47.719Z,69.62
2018-08-10T06:15:14.877Z,69.26
2018-08-10T06:17:42.017Z,69.59
2018-08-10T06:20:10.305Z,68.98
2018-08-10T06:22:37.476Z,67.55
2018-08-10T06:25:04.979Z,67.78
2018-08-10T06:27:32.062Z,67.86
2018-08-10T06:29:59.241Z,67.97
2018-08-10T06:32:26.385Z,65.27
2018-08-10T06:34:53.541Z,63.11
2018-08-10T06:37:20.685Z,63.68
2018-08-10T06:39:47.831Z,63.00
2018-08-10T06:42:14.964Z,62.33
2018-08-10T06:44:42.176Z,59.95
2018-08-10T06:47:09.361Z,59.93
2018-08-10T06:49:36.512Z,58.45
2018-08-10T06:52:03.831Z,59.16
2018-08-10T06:54:30.964Z,59.61
2018-08-10T06:56:58.172Z,59.00
2018-08-10T06:59:25.296Z,59.26
2018-08-10T07:01:52.459Z,58.22
2018-08-10T07:04:19.617Z,57.98
2018-08-10T07:06:46.735Z,58.92
2018-08-10T07:09:13.880Z,59.06
2018-08-10T07:11:41.019Z,59.04
2018-08-10T07:14:08.182Z,58.66
2018-08-10T07:16:36.383Z,59.31
2018-08-10T07:19:03.532Z,58.15
2018-08-10T07:21:30.704Z,57.58
2018-08-10T07:23:58.059Z,57.34
2018-08-10T07:26:25.281Z,57.13
2018-08-10T07:28:52.452Z,59.29
2018-08-10T07:31:19.591Z,56.67
2018-08-10T07:33:46.732Z,57.82
2018-08-10T07:36:13.947Z,58.45
2018-08-10T07:38:41.095Z,58.88
2018-08-10T07:41:08.228Z,57.68
2018-08-10T07:43:35.396Z,56.88
2018-08-10T07:46:02.517Z,57.49
2018-08-10T07:48:29.764Z,57.64
2018-08-10T07:50:56.993Z,57.90
2018-08-10T07:53:24.129Z,55.65
2018-08-10T07:55:51.268Z,55.94
2018-08-10T07:58:18.375Z,56.10
2018-08-10T08:00:45.530Z,57.01
2018-08-10T08:03:12.803Z,56.28
2018-08-10T08:05:39.959Z,56.62
2018-08-10T08:08:07.117Z,54.48
2018-08-10T08:13:00.920Z,54.91
2018-08-10T08:15:28.049Z,54.81
2018-08-10T08:17:55.289Z,55.29
2018-08-10T08:20:22.472Z,56.35
2018-08-10T08:23:02.774Z,55.16
2018-08-10T08:25:29.943Z,54.85
2018-08-10T08:27:57.116Z,57.41
2018-08-10T08:30:24.327Z,56.71
2018-08-10T08:32:51.488Z,57.51
2018-08-10T08:35:18.749Z,57.15
2018-08-10T08:37:46.035Z,56.53
2018-08-10T08:40:16.348Z,55.29
2018-08-10T08:42:44.607Z,54.37
2018-08-10T08:45:46.692Z,54.14
2018-08-10T08:48:13.834Z,55.63
2018-08-10T08:50:42.383Z,55.62
2018-08-10T08:53:09.615Z,55.27
2018-08-10T08:55:42.845Z,55.79
2018-08-10T08:58:10.062Z,54.88
2018-08-10T09:00:37.280Z,56.23
2018-08-10T09:03:04.818Z,55.42
2018-08-10T09:05:32.055Z,55.30
2018-08-10T09:07:59.249Z,56.24
2018-08-10T09:10:26.400Z,53.02
2018-08-10T09:12:53.607Z,55.67
2018-08-10T09:15:21.548Z,55.54
2018-08-10T09:17:48.789Z,56.19
2018-08-10T09:20:15.933Z,56.11
2018-08-10T09:22:43.207Z,55.07
2018-08-10T09:25:12.548Z,54.27
2018-08-10T09:27:39.743Z,54.52
2018-08-10T09:30:08.596Z,53.98
2018-08-10T09:32:35.869Z,54.56
2018-08-10T09:35:04.513Z,54.95
2018-08-10T09:37:31.857Z,55.02
2018-08-10T09:39:58.994Z,55.61
2018-08-10T09:42:26.248Z,55.05
2018-08-10T09:44:53.408Z,54.96
2018-08-10T09:47:20.576Z,55.37
2018-08-10T09:49:48.862Z,54.88
2018-08-10T09:52:16.156Z,54.42
2018-08-10T09:55:29.112Z,54.68
2018-08-10T09:57:57.693Z,54.47
2018-08-10T10:00:30.603Z,55.26
2018-08-10T10:03:03.520Z,55.42
2018-08-10T10:05:30.809Z,54.65
2018-08-10T10:07:57.992Z,54.63
2018-08-10T10:10:25.255Z,53.76
2018-08-10T10:12:52.724Z,54.45
2018-08-10T10:15:20.309Z,53.42
2018-08-10T10:17:47.491Z,53.12
2018-08-10T10:20:15.116Z,52.69
2018-08-10T10:22:42.301Z,51.45
2018-08-10T10:25:09.548Z,53.26
2018-08-10T10:27:36.768Z,52.08
2018-08-10T10:30:05.512Z,52.15
2018-08-10T10:32:32.763Z,51.82
2018-08-10T10:34:59.928Z,52.57
2018-08-10T10:37:27.177Z,53.24
2018-08-10T10:39:54.385Z,53.40
2018-08-10T10:42:21.548Z,53.41
2018-08-10T10:44:49.004Z,53.25
2018-08-10T10:47:16.422Z,52.50
2018-08-10T10:49:43.628Z,52.67
2018-08-10T10:52:10.816Z,52.31
2018-08-10T10:54:38.032Z,52.55
2018-08-10T10:57:05.340Z,52.06
2018-08-10T10:59:32.553Z,52.09
2018-08-10T11:01:59.755Z,51.17
2018-08-10T11:04:26.943Z,51.62
2018-08-10T11:06:54.150Z,51.67
2018-08-10T11:09:21.458Z,52.10
2018-08-10T11:11:48.641Z,51.44
2018-08-10T11:14:15.783Z,51.57
2018-08-10T11:16:42.992Z,50.05
2018-08-10T11:19:10.155Z,48.84
2018-08-10T11:21:37.308Z,50.16
2018-08-10T11:24:04.511Z,49.83
2018-08-10T11:26:31.721Z,49.60
2018-08-10T11:28:58.984Z,49.55
2018-08-10T11:31:26.185Z,47.79
2018-08-10T11:33:53.373Z,46.04
2018-08-10T11:36:20.547Z,45.65
2018-08-10T11:38:47.747Z,47.65
2018-08-10T11:41:14.964Z,45.60
2018-08-10T11:43:42.220Z,47.89
2018-08-10T11:46:09.462Z,48.38
2018-08-10T11:48:36.643Z,47.31
2018-08-10T11:51:03.836Z,45.20
2018-08-10T11:53:31.598Z,45.05
2018-08-10T11:55:58.827Z,44.60
2018-08-10T11:58:25.989Z,46.80
2018-08-10T12:00:53.220Z,44.83
2018-08-10T12:03:20.450Z,44.83
2018-08-10T12:05:47.690Z,44.15
2018-08-10T12:08:14.947Z,43.59
2018-08-10T12:10:42.172Z,44.47
2018-08-10T12:13:09.408Z,44.63
2018-08-10T12:15:36.629Z,46.04
2018-08-10T12:18:03.860Z,45.69
2018-08-10T12:20:31.063Z,46.06
2018-08-10T12:22:58.252Z,45.66
2018-08-10T12:25:25.515Z,48.11
2018-08-10T12:27:52.787Z,47.84
2018-08-10T12:30:20.055Z,45.30
2018-08-10T12:32:47.212Z,44.10
2018-08-10T12:35:14.376Z,45.19
2018-08-10T12:37:41.588Z,45.38
2018-08-10T12:40:08.818Z,45.09
2018-08-10T12:42:36.382Z,45.03
2018-08-10T12:45:05.043Z,42.82
2018-08-10T12:47:32.250Z,42.53
2018-08-10T12:49:59.464Z,43.49
2018-08-10T12:52:26.695Z,43.05
2018-08-10T12:54:53.912Z,43.20
2018-08-10T12:57:21.305Z,42.93
2018-08-10T12:59:48.452Z,45.09
2018-08-10T13:02:15.675Z,44.82
2018-08-10T13:04:42.890Z,46.80
2018-08-10T13:07:10.059Z,44.26
2018-08-10T13:09:37.293Z,44.51
2018-08-10T13:12:04.546Z,43.12
2018-08-10T13:14:31.818Z,42.03
2018-08-10T13:16:58.985Z,41.67
2018-08-10T13:19:26.184Z,40.17
2018-08-10T13:21:53.405Z,38.65
2018-08-10T13:24:20.642Z,37.94
2018-08-10T13:26:47.864Z,38.71
2018-08-10T13:29:15.089Z,36.88
2018-08-10T13:31:42.276Z,37.41
2018-08-10T13:34:09.648Z,37.59
2018-08-10T13:36:36.926Z,37.40
2018-08-10T13:39:07.788Z,36.81
2018-08-10T13:41:35.126Z,36.37
2018-08-10T13:44:02.528Z,36.10
2018-08-10T13:46:29.699Z,35.08
2018-08-10T13:48:57.007Z,33.86
2018-08-10T13:51:24.166Z,33.70
2018-08-10T13:53:51.481Z,33.39
2018-08-10T13:56:18.652Z,32.75
2018-08-10T13:58:45.993Z,32.41
2018-08-10T14:01:13.116Z,31.29
2018-08-10T14:03:40.344Z,32.27
2018-08-10T14:06:07.640Z,31.74
2018-08-10T14:08:34.773Z,30.88
2018-08-10T14:11:01.984Z,30.77
2018-08-10T14:13:29.189Z,30.33
2018-08-10T14:15:56.452Z,31.66
2018-08-10T14:18:23.579Z,30.83
2018-08-10T14:20:50.780Z,30.75
2018-08-10T14:23:17.948Z,31.46
2018-08-10T14:25:45.118Z,29.72
2018-08-10T14:28:12.418Z,29.60
2018-08-10T14:30:39.613Z,30.30
2018-08-10T14:33:06.846Z,30.52
2018-08-10T14:35:34.088Z,30.09
2018-08-10T14:38:01.271Z,29.76
2018-08-10T14:40:28.449Z,29.94
2018-08-10T14:42:55.709Z,28.56
2018-08-10T14:45:22.881Z,29.34
2018-08-10T14:47:50.074Z,30.14
2018-08-10T14:50:17.305Z,30.88
2018-08-10T14:52:44.618Z,30.93
2018-08-10T14:55:13.733Z,31.27
2018-08-10T14:57:40.985Z,31.33
2018-08-10T15:00:13.245Z,32.16
2018-08-10T15:02:40.421Z,33.45
2018-08-10T15:05:08.023Z,29.62
2018-08-10T15:07:35.195Z,30.38
2018-08-10T15:10:02.538Z,29.60
2018-08-10T15:12:29.886Z,28.86
2018-08-10T15:14:56.913Z,30.12
2018-08-10T15:17:24.103Z,30.59
2018-08-10T15:19:51.300Z,30.43
2018-08-10T15:22:18.538Z,29.68
2018-08-10T15:24:45.613Z,30.05
2018-08-10T15:27:12.865Z,29.44
2018-08-10T15:29:40.164Z,30.79
2018-08-10T15:32:07.394Z,30.45
2018-08-10T15:34:34.543Z,29.35
2018-08-10T15:37:01.770Z,29.31
2018-08-10T15:39:28.908Z,32.03
2018-08-10T15:41:56.120Z,31.29
2018-08-10T15:44:23.232Z,31.75
2018-08-10T15:46:50.520Z,33.34
2018-08-10T15:49:17.692Z,32.41
2018-08-10T15:51:44.896Z,31.72
2018-08-10T15:54:12.092Z,30.21
2018-08-10T15:56:39.517Z,29.84
2018-08-10T15:59:06.614Z,29.83
2018-08-10T16:01:33.948Z,30.65
2018-08-10T16:04:01.085Z,31.33
2018-08-10T16:06:28.291Z,30.15
2018-08-10T16:08:55.720Z,30.87
2018-08-10T16:11:22.893Z,30.88
2018-08-10T16:13:50.195Z,32.37
2018-08-10T16:16:17.485Z,28.03
2018-08-10T16:18:45.038Z,27.93
2018-08-10T16:21:12.262Z,27.92
2018-08-10T16:23:39.374Z,27.33
2018-08-10T16:26:06.873Z,28.50
2018-08-10T16:28:34.061Z,29.78
2018-08-10T16:31:01.246Z,27.64
2018-08-10T16:33:28.512Z,30.13
2018-08-10T16:35:55.743Z,29.76
2018-08-10T16:38:23.077Z,31.07
2018-08-10T16:40:50.227Z,31.70
2018-08-10T16:43:17.499Z,32.72
2018-08-10T16:45:44.727Z,34.58
2018-08-10T16:48:11.931Z,32.03
2018-08-10T16:51:16.615Z,32.22
2018-08-10T16:53:43.768Z,33.43
2018-08-10T16:56:11.053Z,32.69
2018-08-10T16:58:38.284Z,33.29
2018-08-10T17:01:06.817Z,33.48
2018-08-10T17:03:34.069Z,33.77
2018-08-10T17:06:01.298Z,34.03
2018-08-10T17:08:28.595Z,34.04
2018-08-10T17:10:55.811Z,34.65
2018-08-10T17:13:23.012Z,35.54
2018-08-10T17:15:50.191Z,34.90
2018-08-10T17:18:17.332Z,34.38
2018-08-10T17:20:44.642Z,34.85
2018-08-10T17:23:12.015Z,34.86
2018-08-10T17:25:39.254Z,35.06
2018-08-10T17:28:06.460Z,36.06
2018-08-10T17:30:33.849Z,36.47
2018-08-10T17:33:01.036Z,36.17
2018-08-10T17:35:28.321Z,35.00
2018-08-10T17:38:02.192Z,36.89
2018-08-10T17:40:29.947Z,38.12
2018-08-10T17:42:57.076Z,37.25
2018-08-10T17:45:24.317Z,35.75
2018-08-10T17:47:51.503Z,36.06
2018-08-10T17:50:19.835Z,35.29
2018-08-10T17:52:49.481Z,35.13
2018-08-10T17:55:17.000Z,35.04
2018-08-10T17:57:44.505Z,35.41
2018-08-10T18:00:15.222Z,41.72
2018-08-10T18:02:42.872Z,42.39
2018-08-10T18:05:11.840Z,47.71
2018-08-10T18:07:39.912Z,48.21
2018-08-10T18:10:08.033Z,49.50
2018-08-10T18:12:36.352Z,50.45
2018-08-10T18:15:05.845Z,50.90
2018-08-10T18:17:33.038Z,51.21
2018-08-10T18:20:00.225Z,52.15
2018-08-10T18:22:27.374Z,52.35
2018-08-10T18:24:54.638Z,53.62
2018-08-10T18:27:21.869Z,54.48
2018-08-10T18:29:48.973Z,54.70
2018-08-10T18:32:16.132Z,55.46
2018-08-10T18:34:43.275Z,55.87
2018-08-10T18:37:10.481Z,55.88
2018-08-10T18:39:37.679Z,56.51
2018-08-10T18:42:05.231Z,56.52
2018-08-10T18:44:32.412Z,57.08
2018-08-10T18:46:59.640Z,57.28
2018-08-10T18:49:26.823Z,57.52
2018-08-10T18:51:54.025Z,57.72
2018-08-10T18:54:21.215Z,57.58
2018-08-10T18:56:48.513Z,58.80
2018-08-10T18:59:15.708Z,58.62
2018-08-10T19:01:42.896Z,58.63
2018-08-10T19:04:10.118Z,59.26
2018-08-10T19:06:37.324Z,59.89
2018-08-10T19:09:07.265Z,59.61
2018-08-10T19:11:34.482Z,60.72
2018-08-10T19:14:01.649Z,60.52
2018-08-10T19:16:28.856Z,60.37
2018-08-10T19:18:56.055Z,60.79
2018-08-10T19:21:23.236Z,60.59
2018-08-10T19:23:50.377Z,61.87
2018-08-10T19:26:17.610Z,61.28
2018-08-10T19:28:44.777Z,61.81
2018-08-10T19:31:11.945Z,61.81
2018-08-10T19:33:39.234Z,61.96
2018-08-10T19:36:06.400Z,62.15
2018-08-10T19:38:34.332Z,62.71
2018-08-10T19:41:01.577Z,63.05
2018-08-10T19:43:28.771Z,62.37
2018-08-10T19:45:56.002Z,63.02
2018-08-10T19:48:23.266Z,62.78
2018-08-10T19:50:50.480Z,63.87
2018-08-10T19:53:17.695Z,63.03
2018-08-10T19:55:44.911Z,64.19
2018-08-10T19:58:12.117Z,63.60
2018-08-10T20:00:39.362Z,63.23
2018-08-10T20:03:06.561Z,64.18
2018-08-10T20:05:33.724Z,63.56
2018-08-10T20:08:00.973Z,64.28
2018-08-10T20:10:28.158Z,64.44
2018-08-10T20:12:55.337Z,63.94
2018-08-10T20:15:22.628Z,64.69
2018-08-10T20:17:49.767Z,64.88
2018-08-10T20:20:18.000Z,65.54
2018-08-10T20:22:45.680Z,66.47
2018-08-10T20:25:13.320Z,66.14
2018-08-10T20:27:40.559Z,66.55
2018-08-10T20:30:10.476Z,65.89
2018-08-10T20:32:37.974Z,66.78
2018-08-10T20:35:07.148Z,65.72
2018-08-10T20:37:34.364Z,66.68
2018-08-10T20:40:01.554Z,66.79
2018-08-10T20:42:28.784Z,66.55
2018-08-10T20:44:56.070Z,68.38
2018-08-10T20:47:23.273Z,68.46
2018-08-10T20:49:50.476Z,68.62
2018-08-10T20:52:17.644Z,68.96
2018-08-10T20:54:44.834Z,67.93
2018-08-10T20:57:12.047Z,68.41
2018-08-10T20:59:39.325Z,68.38
2018-08-10T21:02:06.668Z,68.07
2018-08-10T21:04:33.903Z,68.61
2018-08-10T21:07:01.188Z,68.24
2018-08-10T21:09:28.452Z,68.85
2018-08-10T21:11:55.648Z,69.09
2018-08-10T21:14:22.859Z,68.61
2018-08-10T21:16:50.101Z,69.59
2018-08-10T21:19:17.278Z,69.19
2018-08-10T21:21:44.468Z,68.62
2018-08-10T21:24:11.686Z,69.34
2018-08-10T21:26:38.851Z,69.36
2018-08-10T21:29:06.006Z,69.41
2018-08-10T21:31:33.163Z,69.20
2018-08-10T21:34:00.361Z,69.74
2018-08-10T21:36:27.511Z,69.67
2018-08-10T21:38:54.705Z,69.92
2018-08-10T21:41:21.940Z,69.87
2018-08-10T21:43:49.114Z,70.37
2018-08-10T21:46:16.247Z,69.62
2018-08-10T21:48:43.433Z,69.82
2018-08-10T21:54:28.370Z,71.07
2018-08-10T21:56:55.628Z,72.42
2018-08-10T21:59:22.783Z,71.61
2018-08-10T22:01:50.039Z,72.11
2018-08-10T22:04:17.234Z,72.98
2018-08-10T22:06:44.476Z,72.85
2018-08-10T22:09:11.648Z,72.26
2018-08-10T22:11:38.950Z,71.93
2018-08-10T22:14:11.677Z,71.58
2018-08-10T22:16:44.677Z,71.44
2018-08-10T22:19:12.735Z,71.97
2018-08-10T22:21:40.376Z,72.25
2018-08-10T22:24:07.568Z,72.33
2018-08-10T22:26:34.773Z,71.70
2018-08-10T22:29:01.965Z,71.67
2018-08-10T22:31:29.157Z,72.21
2018-08-10T22:33:56.371Z,72.75
2018-08-10T22:36:23.642Z,72.15
2018-08-10T22:38:57.715Z,72.43
2018-08-10T22:41:24.969Z,72.10
2018-08-10T22:43:52.160Z,72.61
2018-08-10T22:46:25.473Z,74.70
2018-08-10T22:48:52.700Z,74.58
2018-08-10T22:51:19.920Z,76.00
2018-08-10T22:53:47.217Z,75.09
2018-08-10T22:56:14.432Z,76.62
2018-08-10T22:58:41.739Z,76.51
2018-08-10T23:01:09.012Z,75.73
2018-08-10T23:03:39.632Z,75.75
2018-08-10T23:06:06.860Z,75.15
2018-08-10T23:08:34.195Z,75.62
2018-08-10T23:11:01.316Z,75.68
2018-08-10T23:13:28.643Z,75.38
2018-08-10T23:15:56.338Z,74.75
2018-08-10T23:18:23.516Z,74.55
2018-08-10T23:20:50.708Z,75.13
2018-08-10T23:23:17.947Z,74.40
2018-08-10T23:25:45.162Z,75.11
2018-08-10T23:30:46.432Z,75.52
2018-08-10T23:33:13.636Z,77.45
2018-08-10T23:35:40.787Z,77.64
2018-08-10T23:38:08.013Z,77.26
2018-08-10T23:43:38.068Z,78.10
2018-08-10T23:46:05.860Z,77.30
2018-08-10T23:48:33.049Z,78.20
2018-08-10T23:51:00.228Z,78.78
2018-08-10T23:53:27.377Z,77.73
2018-08-10T23:55:54.572Z,78.38
2018-08-10T23:58:21.839Z,78.53
